createdAt,value
2022-11-18T00:01:31.932Z,3.09
2022-11-18T00:04:00.343Z,3.07
2022-11-18T00:06:30.273Z,3.07
2022-11-18T00:09:00.727Z,3.08
2022-11-18T00:11:48.430Z,3.09
2022-11-18T00:14:23.573Z,3.10
2022-11-18T00:17:03.478Z,3.11
2022-11-18T00:19:39.960Z,3.13
2022-11-18T00:22:12.673Z,3.15
2022-11-18T00:24:41.046Z,3.16
2022-11-18T00:27:09.396Z,3.18
2022-11-18T00:29:38.055Z,3.19
2022-11-18T00:32:06.403Z,3.21
2022-11-18T00:34:34.885Z,3.23
2022-11-18T00:37:03.417Z,3.26
2022-11-18T00:39:31.972Z,3.28
2022-11-18T00:42:21.159Z,3.29
2022-11-18T00:44:49.533Z,3.31
2022-11-18T00:47:17.863Z,3.33
2022-11-18T00:49:46.168Z,3.35
2022-11-18T00:52:14.702Z,3.36
2022-11-18T00:54:42.973Z,3.37
2022-11-18T00:57:11.476Z,3.38
2022-11-18T00:59:39.721Z,3.36
2022-11-18T01:02:08.120Z,3.37
2022-11-18T01:04:36.477Z,3.37
2022-11-18T01:07:04.862Z,3.37
2022-11-18T01:09:33.465Z,3.36
2022-11-18T01:12:20.943Z,3.36
2022-11-18T01:14:49.353Z,3.37
2022-11-18T01:17:17.620Z,3.38
2022-11-18T01:19:46.225Z,3.38
2022-11-18T01:22:14.496Z,3.41
2022-11-18T01:24:42.878Z,3.43
2022-11-18T01:27:11.121Z,3.45
2022-11-18T01:29:39.359Z,3.46
2022-11-18T01:32:24.893Z,3.47
2022-11-18T01:34:53.847Z,3.49
2022-11-18T01:37:22.669Z,3.50
2022-11-18T01:39:50.986Z,3.50
2022-11-18T01:42:19.777Z,3.52
2022-11-18T01:45:10.140Z,3.52
2022-11-18T01:47:44.837Z,3.53
2022-11-18T01:50:14.878Z,3.55
2022-11-18T01:52:47.422Z,3.56
2022-11-18T01:55:27.599Z,3.57
2022-11-18T01:58:07.851Z,3.58
2022-11-18T02:00:37.105Z,3.60
2022-11-18T02:03:06.408Z,3.61
2022-11-18T02:05:36.323Z,3.64
2022-11-18T02:08:07.851Z,3.65
2022-11-18T02:10:36.186Z,3.66
2022-11-18T02:13:04.920Z,3.67
2022-11-18T02:15:42.379Z,3.69
2022-11-18T02:18:24.179Z,3.71
2022-11-18T02:21:01.117Z,3.72
2022-11-18T02:24:00.496Z,3.73
2022-11-18T02:26:39.165Z,3.74
2022-11-18T02:29:17.253Z,3.76
2022-11-18T02:31:53.882Z,3.77
2022-11-18T02:34:49.723Z,3.78
2022-11-18T02:37:27.201Z,3.80
2022-11-18T02:40:14.744Z,3.80
2022-11-18T02:42:50.347Z,3.81
2022-11-18T02:45:21.386Z,3.81
2022-11-18T02:47:51.758Z,3.81
2022-11-18T02:50:25.475Z,3.82
2022-11-18T02:52:58.437Z,3.82
2022-11-18T02:55:30.909Z,3.83
2022-11-18T02:58:01.507Z,3.83
2022-11-18T03:00:30.724Z,3.84
2022-11-18T03:02:59.090Z,3.85
2022-11-18T03:05:43.275Z,3.86
2022-11-18T03:08:17.852Z,3.87
2022-11-18T03:11:11.615Z,3.88
2022-11-18T03:14:14.223Z,3.89
2022-11-18T03:17:02.605Z,3.90
2022-11-18T03:19:52.989Z,3.90
2022-11-18T03:22:33.485Z,3.90
2022-11-18T03:25:14.472Z,3.89
2022-11-18T03:28:05.476Z,3.89
2022-11-18T03:30:37.440Z,3.89
2022-11-18T03:33:11.810Z,3.90
2022-11-18T03:35:43.561Z,3.90
2022-11-18T03:38:21.648Z,3.90
2022-11-18T03:40:55.239Z,3.89
2022-11-18T03:43:27.608Z,3.89
2022-11-18T03:45:59.121Z,3.87
2022-11-18T03:48:32.231Z,3.87
2022-11-18T03:51:14.764Z,3.86
2022-11-18T03:53:52.193Z,3.86
2022-11-18T03:56:24.839Z,3.86
2022-11-18T03:59:13.197Z,3.86
2022-11-18T04:01:52.823Z,3.84
2022-11-18T04:04:24.060Z,3.82
2022-11-18T04:07:04.608Z,3.81
2022-11-18T04:09:41.851Z,3.81
2022-11-18T04:12:18.277Z,3.80
2022-11-18T04:14:55.681Z,3.81
2022-11-18T04:17:27.742Z,3.82
2022-11-18T04:19:56.433Z,3.82
2022-11-18T04:22:24.691Z,3.81
2022-11-18T04:24:52.941Z,3.81
2022-11-18T04:27:21.394Z,3.81
2022-11-18T04:29:49.661Z,3.81
2022-11-18T04:32:17.925Z,3.82
2022-11-18T04:34:46.652Z,3.81
2022-11-18T04:37:15.096Z,3.78
2022-11-18T04:39:43.342Z,3.78
2022-11-18T04:42:11.684Z,3.78
2022-11-18T04:44:39.980Z,3.79
2022-11-18T04:47:08.331Z,3.80
